Time;durP1;ratioP1;P1;durP2;ratioP2;P2;SDS_P1;SDS_P2;PMS_P1;PMS_P2;Temp;Humidity;BMP_temperature;BMP_pressure;BME280_temperature;BME280_humidity;BME280_pressure;Samples;Min_cycle;Max_cycle;Signal;HPM_P1;HPM_P2
2023/08/06 00:02:23;;;;;;;3.20;2.90;;;14.00;99.90;;;;;;5054981;28;20448;-57
2023/08/06 00:04:49;;;;;;;3.57;3.00;;;14.00;99.90;;;;;;5059090;28;20267;-54
2023/08/06 00:07:15;;;;;;;4.87;2.90;;;14.00;99.90;;;;;;5062828;28;20213;-55
2023/08/06 00:09:40;;;;;;;3.10;2.50;;;13.90;99.90;;;;;;5059066;28;20202;-58
2023/08/06 00:12:06;;;;;;;3.83;3.30;;;13.90;99.90;;;;;;5060566;28;20231;-54
2023/08/06 00:14:32;;;;;;;3.07;2.77;;;13.90;99.90;;;;;;5062264;28;20698;-55
2023/08/06 00:16:57;;;;;;;2.70;2.50;;;13.90;99.90;;;;;;5064460;28;20249;-55
2023/08/06 00:19:23;;;;;;;4.90;2.83;;;13.90;99.90;;;;;;5062221;28;20236;-53
2023/08/06 00:21:49;;;;;;;3.10;2.87;;;13.80;99.90;;;;;;5064891;28;20179;-55
2023/08/06 00:24:14;;;;;;;6.57;2.40;;;13.80;99.90;;;;;;5058019;28;20203;-56
2023/08/06 00:26:40;;;;;;;4.20;2.90;;;13.80;99.90;;;;;;5063289;28;20580;-57
2023/08/06 00:29:05;;;;;;;3.60;2.43;;;13.80;99.90;;;;;;5067128;28;20186;-57
2023/08/06 00:31:31;;;;;;;2.60;2.40;;;13.70;99.90;;;;;;5063002;28;20186;-56
2023/08/06 00:33:57;;;;;;;6.67;2.47;;;13.70;99.90;;;;;;5067654;28;20278;-59
2023/08/06 00:36:22;;;;;;;2.60;2.40;;;13.60;99.90;;;;;;5056465;28;20188;-58
2023/08/06 00:38:48;;;;;;;2.70;2.47;;;13.60;99.90;;;;;;5058904;28;20737;-55
2023/08/06 00:41:14;;;;;;;5.80;3.00;;;13.50;99.90;;;;;;5061500;28;20710;-56
2023/08/06 00:43:39;;;;;;;3.00;2.70;;;13.50;99.90;;;;;;5070197;28;20718;-55
2023/08/06 00:46:05;;;;;;;3.00;2.20;;;13.50;99.90;;;;;;5063743;28;20675;-57
2023/08/06 00:48:31;;;;;;;5.50;2.50;;;13.40;99.90;;;;;;5060532;28;20174;-56
2023/08/06 00:50:57;;;;;;;2.30;1.90;;;13.40;99.90;;;;;;5060053;28;20461;-57
2023/08/06 00:53:23;;;;;;;3.63;2.57;;;13.40;99.90;;;;;;5061290;28;20451;-58
2023/08/06 00:55:50;;;;;;;6.93;2.40;;;13.50;99.90;;;;;;5066418;28;20433;-57
2023/08/06 00:58:16;;;;;;;2.63;2.40;;;13.50;99.90;;;;;;5053732;28;20935;-58
2023/08/06 01:00:42;;;;;;;2.40;2.10;;;13.50;99.90;;;;;;5062692;28;20859;-58
2023/08/06 01:03:08;;;;;;;3.50;2.30;;;13.40;99.90;;;;;;5062081;28;20972;-57
2023/08/06 01:05:34;;;;;;;2.17;2.03;;;13.50;99.90;;;;;;5062556;28;20191;-58
2023/08/06 01:08:24;;;;;;;5.50;2.20;;;13.50;99.90;;;;;;5058242;28;20464;-58
2023/08/06 01:11:07;;;;;;;3.60;2.30;;;13.50;99.90;;;;;;5059182;28;20497;-55
2023/08/06 01:13:54;;;;;;;4.23;2.73;;;13.50;99.90;;;;;;5060066;28;20468;-55
2023/08/06 01:16:21;;;;;;;8.70;2.93;;;13.50;99.90;;;;;;5063219;28;20425;-62
2023/08/06 01:18:49;;;;;;;2.47;2.07;;;13.50;99.90;;;;;;5063938;28;20433;-56
2023/08/06 01:21:16;;;;;;;2.57;2.20;;;13.50;99.90;;;;;;5061646;28;20425;-57
2023/08/06 01:23:42;;;;;;;2.50;2.30;;;13.50;99.90;;;;;;5067391;28;20475;-58
2023/08/06 01:26:17;;;;;;;2.90;2.40;;;13.50;99.90;;;;;;5060849;28;21177;-57
2023/08/06 01:28:57;;;;;;;3.87;2.20;;;13.50;99.90;;;;;;5058704;28;20787;-55
2023/08/06 01:31:27;;;;;;;5.93;2.40;;;13.50;99.90;;;;;;5061001;28;20436;-55
2023/08/06 01:33:55;;;;;;;3.50;3.03;;;13.50;99.90;;;;;;5067206;28;20442;-54
2023/08/06 01:36:21;;;;;;;5.33;2.60;;;13.50;99.90;;;;;;5058730;28;20432;-53
2023/08/06 01:38:47;;;;;;;2.40;2.20;;;13.50;99.90;;;;;;5060795;28;20515;-54
2023/08/06 01:41:13;;;;;;;2.67;2.10;;;13.40;99.90;;;;;;5062468;28;20583;-57
2023/08/06 01:43:38;;;;;;;3.23;2.53;;;13.40;99.90;;;;;;5064693;28;20201;-56
2023/08/06 01:46:04;;;;;;;4.97;2.27;;;13.40;99.90;;;;;;5065670;28;20292;-53
2023/08/06 01:48:29;;;;;;;3.73;2.53;;;13.40;99.90;;;;;;5066117;28;20171;-56
2023/08/06 01:50:55;;;;;;;2.60;2.40;;;13.40;99.90;;;;;;5058770;28;20166;-56
2023/08/06 01:53:21;;;;;;;2.53;2.33;;;13.40;99.90;;;;;;5061955;28;20190;-56
2023/08/06 01:55:49;;;;;;;2.07;1.80;;;13.40;99.90;;;;;;5063957;28;20720;-54
2023/08/06 01:58:15;;;;;;;2.53;1.90;;;13.40;99.90;;;;;;5064400;28;20189;-55
2023/08/06 02:00:41;;;;;;;3.30;2.27;;;13.40;99.90;;;;;;5056157;28;20436;-56
2023/08/06 02:03:07;;;;;;;2.63;2.43;;;13.30;99.90;;;;;;5053559;28;20449;-56
2023/08/06 02:05:32;;;;;;;3.33;2.27;;;13.30;99.90;;;;;;5063416;28;20197;-55
2023/08/06 02:07:58;;;;;;;3.10;2.40;;;13.30;99.90;;;;;;5058235;28;20264;-55
2023/08/06 02:10:23;;;;;;;3.87;2.40;;;13.30;99.90;;;;;;5055682;28;20640;-56
2023/08/06 02:12:49;;;;;;;3.20;2.23;;;13.20;99.90;;;;;;5058096;28;20311;-54
2023/08/06 02:15:15;;;;;;;3.63;2.53;;;13.20;99.90;;;;;;5058641;28;20182;-56
2023/08/06 02:17:40;;;;;;;3.77;2.43;;;13.20;99.90;;;;;;5059739;28;20187;-55
2023/08/06 02:20:06;;;;;;;8.67;2.60;;;13.20;99.90;;;;;;5055962;28;20181;-56
2023/08/06 02:22:33;;;;;;;3.10;2.50;;;13.10;99.90;;;;;;5064933;28;20557;-55
2023/08/06 02:24:59;;;;;;;3.60;1.90;;;13.00;99.90;;;;;;5060526;28;20511;-55
2023/08/06 02:27:24;;;;;;;2.47;2.00;;;12.90;99.90;;;;;;5064934;28;20463;-55
2023/08/06 02:29:50;;;;;;;3.97;2.30;;;12.90;99.90;;;;;;5061580;28;20177;-56
2023/08/06 02:32:16;;;;;;;2.47;2.27;;;12.90;99.90;;;;;;5056117;28;20236;-54
2023/08/06 02:34:41;;;;;;;3.13;2.20;;;12.80;99.90;;;;;;5060642;28;20257;-56
2023/08/06 02:37:07;;;;;;;3.27;2.47;;;12.80;99.90;;;;;;5056522;28;20177;-55
2023/08/06 02:39:33;;;;;;;2.40;2.20;;;12.80;99.90;;;;;;5062999;28;20615;-56
2023/08/06 02:41:59;;;;;;;2.50;2.30;;;12.80;99.90;;;;;;5057759;28;20171;-55
2023/08/06 02:44:27;;;;;;;4.03;2.47;;;12.80;99.90;;;;;;5062000;28;20487;-55
2023/08/06 02:46:53;;;;;;;3.70;2.70;;;12.70;99.90;;;;;;5061131;28;20191;-55
2023/08/06 02:49:19;;;;;;;3.30;2.57;;;12.70;99.90;;;;;;5060188;28;20425;-54
2023/08/06 02:51:47;;;;;;;6.67;2.50;;;12.80;99.90;;;;;;5058511;28;20181;-55
2023/08/06 02:54:13;;;;;;;3.30;2.60;;;12.80;99.90;;;;;;5058644;28;20194;-54
2023/08/06 02:56:42;;;;;;;4.30;2.70;;;12.80;99.90;;;;;;5059209;28;20429;-55
2023/08/06 02:59:08;;;;;;;4.67;2.03;;;12.80;99.90;;;;;;5058997;28;20222;-54
2023/08/06 03:01:33;;;;;;;6.63;2.30;;;12.80;99.90;;;;;;5064151;28;20795;-54
2023/08/06 03:03:59;;;;;;;8.60;2.80;;;12.80;99.90;;;;;;5062436;28;20222;-53
2023/08/06 03:06:24;;;;;;;3.97;2.97;;;12.90;99.90;;;;;;5059227;28;20230;-56
2023/08/06 03:08:50;;;;;;;4.03;2.30;;;12.90;99.90;;;;;;5056657;28;20176;-56
2023/08/06 03:11:15;;;;;;;6.20;2.47;;;12.90;99.90;;;;;;5061600;28;20179;-54
2023/08/06 03:13:41;;;;;;;4.97;2.60;;;12.90;99.90;;;;;;5063653;28;20725;-55
2023/08/06 03:16:07;;;;;;;3.50;2.70;;;13.00;99.90;;;;;;5059687;28;20189;-57
2023/08/06 03:18:32;;;;;;;2.80;2.27;;;13.00;99.90;;;;;;5064115;28;20166;-55
2023/08/06 03:20:58;;;;;;;5.07;3.17;;;12.90;99.90;;;;;;5060515;28;20228;-57
2023/08/06 03:23:23;;;;;;;4.73;2.70;;;12.90;99.90;;;;;;5065125;28;20205;-56
2023/08/06 03:25:49;;;;;;;5.00;2.63;;;13.00;99.90;;;;;;5063877;28;20229;-55
2023/08/06 03:28:15;;;;;;;5.30;2.80;;;13.00;99.90;;;;;;5059915;28;20762;-56
2023/08/06 03:30:40;;;;;;;5.20;3.00;;;13.00;99.90;;;;;;5058173;28;20178;-55
2023/08/06 03:33:06;;;;;;;4.37;2.60;;;13.00;99.90;;;;;;5063721;28;20206;-58
2023/08/06 03:35:31;;;;;;;2.77;2.40;;;13.00;99.90;;;;;;5062121;28;20175;-57
2023/08/06 03:37:57;;;;;;;6.43;2.83;;;13.00;99.90;;;;;;5062776;28;20190;-56
2023/08/06 03:40:23;;;;;;;3.40;2.77;;;13.00;99.90;;;;;;5057582;28;20244;-56
2023/08/06 03:42:48;;;;;;;3.37;2.50;;;13.00;99.90;;;;;;5066669;28;20208;-56
2023/08/06 03:45:14;;;;;;;4.37;2.30;;;13.00;99.90;;;;;;5064893;28;20209;-55
2023/08/06 03:47:40;;;;;;;3.13;2.70;;;13.00;99.90;;;;;;5068193;28;20779;-56
2023/08/06 03:50:06;;;;;;;3.57;2.20;;;13.00;99.90;;;;;;5062849;28;20182;-56
2023/08/06 03:52:31;;;;;;;6.80;2.80;;;13.00;99.90;;;;;;5067498;28;20440;-53
2023/08/06 03:54:57;;;;;;;7.07;3.40;;;13.00;99.90;;;;;;5061248;28;20190;-58
2023/08/06 03:57:23;;;;;;;3.60;2.70;;;13.00;99.90;;;;;;5068808;28;20635;-56
2023/08/06 03:59:48;;;;;;;7.80;2.90;;;13.00;99.90;;;;;;5064119;28;20175;-57
2023/08/06 04:02:14;;;;;;;4.77;3.17;;;13.00;99.90;;;;;;5062914;28;20257;-56
2023/08/06 04:04:39;;;;;;;6.13;3.30;;;13.10;99.90;;;;;;5066818;28;20206;-54
2023/08/06 04:07:05;;;;;;;3.57;2.60;;;13.10;99.90;;;;;;5061295;28;20722;-54
2023/08/06 04:09:31;;;;;;;9.67;2.60;;;13.00;99.90;;;;;;5058742;28;20178;-54
2023/08/06 04:11:58;;;;;;;7.73;2.47;;;13.10;99.90;;;;;;5066776;28;20323;-56
2023/08/06 04:14:24;;;;;;;3.10;2.20;;;13.00;99.90;;;;;;5068681;28;20694;-57
2023/08/06 04:16:49;;;;;;;2.80;1.93;;;13.10;99.90;;;;;;5058787;28;20426;-56
2023/08/06 04:19:15;;;;;;;4.70;2.73;;;13.10;99.90;;;;;;5063786;28;20659;-56
2023/08/06 04:21:40;;;;;;;4.33;2.30;;;13.10;99.90;;;;;;5065424;28;20178;-56
2023/08/06 04:24:06;;;;;;;2.53;2.00;;;13.20;99.90;;;;;;5064998;28;20835;-55
2023/08/06 04:26:32;;;;;;;3.27;1.83;;;13.20;99.90;;;;;;5061299;28;20214;-54
2023/08/06 04:28:57;;;;;;;4.07;2.30;;;13.20;99.90;;;;;;5064833;28;20677;-54
2023/08/06 04:31:23;;;;;;;2.10;1.70;;;13.20;99.90;;;;;;5063395;28;20240;-56
2023/08/06 04:33:49;;;;;;;4.57;2.20;;;13.20;99.90;;;;;;5065321;28;20236;-55
2023/08/06 04:36:14;;;;;;;3.87;1.80;;;13.20;99.90;;;;;;5059988;28;20186;-57
2023/08/06 04:38:44;;;;;;;3.17;2.13;;;13.20;99.90;;;;;;5059038;28;20710;-55
2023/08/06 04:41:10;;;;;;;3.57;2.17;;;13.20;99.90;;;;;;5065537;28;20174;-58
2023/08/06 04:43:36;;;;;;;2.30;2.00;;;13.20;99.90;;;;;;5061671;28;21267;-57
2023/08/06 04:46:01;;;;;;;3.87;2.00;;;13.20;99.90;;;;;;5064936;28;20202;-55
2023/08/06 04:48:27;;;;;;;3.00;1.70;;;13.20;99.90;;;;;;5060516;28;20225;-52
2023/08/06 04:50:53;;;;;;;2.47;1.57;;;13.20;99.90;;;;;;5060058;28;20538;-58
2023/08/06 04:53:18;;;;;;;5.50;1.97;;;13.20;99.90;;;;;;5065341;28;20663;-55
2023/08/06 04:55:44;;;;;;;2.30;2.10;;;13.20;99.90;;;;;;5064914;28;20167;-58
2023/08/06 04:58:10;;;;;;;1.73;1.63;;;13.20;99.90;;;;;;5066639;28;20190;-56
2023/08/06 05:00:36;;;;;;;3.60;1.70;;;13.20;99.90;;;;;;5061387;28;20266;-58
2023/08/06 05:03:02;;;;;;;2.30;1.30;;;13.20;99.90;;;;;;5060636;28;20524;-58
2023/08/06 05:05:28;;;;;;;2.90;1.60;;;13.20;99.90;;;;;;5064583;28;20460;-58
2023/08/06 05:07:58;;;;;;;1.10;1.00;;;13.20;99.90;;;;;;5062022;28;20421;-54
2023/08/06 05:10:27;;;;;;;2.10;1.30;;;13.10;99.90;;;;;;5058756;28;20427;-56
2023/08/06 05:12:53;;;;;;;1.33;1.10;;;13.10;99.90;;;;;;5061231;28;20461;-54
2023/08/06 05:15:19;;;;;;;1.50;1.40;;;13.10;99.90;;;;;;5059243;28;20519;-55
2023/08/06 05:17:45;;;;;;;3.20;1.40;;;13.10;99.90;;;;;;5068584;28;20408;-53
2023/08/06 05:20:11;;;;;;;2.07;1.37;;;13.20;99.90;;;;;;5064025;28;20490;-57
2023/08/06 05:22:36;;;;;;;1.87;1.20;;;13.20;99.90;;;;;;5065694;28;20207;-57
2023/08/06 05:25:02;;;;;;;5.90;1.40;;;13.20;99.90;;;;;;5061688;28;20463;-55
2023/08/06 05:27:28;;;;;;;3.00;1.60;;;13.20;99.90;;;;;;5063175;28;20191;-54
2023/08/06 05:29:56;;;;;;;2.90;1.50;;;13.20;99.90;;;;;;5059361;28;20178;-58
2023/08/06 05:32:22;;;;;;;2.10;1.03;;;13.20;99.90;;;;;;5057100;28;20197;-58
2023/08/06 05:34:47;;;;;;;21.00;1.93;;;13.20;99.90;;;;;;5066425;28;20519;-57
2023/08/06 05:37:13;;;;;;;2.10;0.90;;;13.20;99.90;;;;;;5063434;28;20351;-58
2023/08/06 05:39:39;;;;;;;2.03;1.30;;;13.20;99.90;;;;;;5059532;28;20232;-56
2023/08/06 05:42:05;;;;;;;3.33;1.27;;;13.30;99.90;;;;;;5067378;28;20582;-59
2023/08/06 05:44:30;;;;;;;1.77;1.10;;;13.30;99.90;;;;;;5060123;28;20221;-58
2023/08/06 05:46:56;;;;;;;8.90;1.60;;;13.30;99.90;;;;;;5061749;28;20801;-58
2023/08/06 05:49:22;;;;;;;2.27;1.30;;;13.30;99.90;;;;;;5065998;28;20185;-56
2023/08/06 05:51:48;;;;;;;1.30;1.10;;;13.30;99.90;;;;;;5060871;28;20198;-58
2023/08/06 05:54:13;;;;;;;1.20;1.00;;;13.30;99.90;;;;;;5060248;28;20194;-57
2023/08/06 05:56:39;;;;;;;3.33;1.00;;;13.30;99.90;;;;;;5068106;28;20421;-57
2023/08/06 05:59:05;;;;;;;2.60;0.90;;;13.30;99.90;;;;;;5066189;28;20191;-59
2023/08/06 06:01:30;;;;;;;1.03;0.93;;;13.30;99.90;;;;;;5066392;28;20389;-57
2023/08/06 06:03:56;;;;;;;3.20;0.90;;;13.30;99.90;;;;;;5067404;28;20198;-58
2023/08/06 06:06:22;;;;;;;4.00;1.13;;;13.20;99.90;;;;;;5061305;28;20297;-57
2023/08/06 06:08:47;;;;;;;1.30;1.20;;;13.20;99.90;;;;;;5063238;28;20701;-57
2023/08/06 06:11:13;;;;;;;1.33;1.17;;;13.20;99.90;;;;;;5060642;28;21053;-57
2023/08/06 06:13:38;;;;;;;1.33;1.00;;;13.30;99.90;;;;;;5059361;28;20228;-58
2023/08/06 06:16:05;;;;;;;1.93;1.20;;;13.30;99.90;;;;;;5056746;28;20186;-58
2023/08/06 06:18:30;;;;;;;1.20;0.87;;;13.40;99.90;;;;;;5058307;28;20189;-57
2023/08/06 06:20:56;;;;;;;2.67;1.27;;;13.40;99.90;;;;;;5064735;28;20441;-58
2023/08/06 06:23:22;;;;;;;1.93;1.30;;;13.50;99.90;;;;;;5061002;28;20202;-58
2023/08/06 06:25:49;;;;;;;1.30;1.00;;;13.50;99.90;;;;;;5059602;28;20627;-58
2023/08/06 06:28:14;;;;;;;2.80;1.37;;;13.60;99.90;;;;;;5058566;28;20273;-58
2023/08/06 06:30:42;;;;;;;1.50;1.10;;;13.60;99.90;;;;;;5057661;28;20586;-57
2023/08/06 06:33:07;;;;;;;2.40;1.00;;;13.60;99.90;;;;;;5061580;28;20214;-58
2023/08/06 06:35:33;;;;;;;0.80;0.80;;;13.60;99.90;;;;;;5053923;28;20443;-58
2023/08/06 06:37:59;;;;;;;1.33;1.20;;;13.60;99.90;;;;;;5059080;28;20198;-58
2023/08/06 06:40:25;;;;;;;0.80;0.77;;;13.60;99.90;;;;;;5057120;28;20683;-58
2023/08/06 06:42:51;;;;;;;1.10;0.93;;;13.50;99.90;;;;;;5058121;28;20456;-59
2023/08/06 06:45:16;;;;;;;1.20;1.10;;;13.40;99.90;;;;;;5063935;28;20213;-56
2023/08/06 06:47:42;;;;;;;1.10;0.90;;;13.40;99.90;;;;;;5058933;28;20177;-58
2023/08/06 06:50:08;;;;;;;0.90;0.80;;;13.40;99.90;;;;;;5066370;28;20185;-56
2023/08/06 06:52:34;;;;;;;1.60;1.10;;;13.40;99.90;;;;;;5055528;28;20202;-57
2023/08/06 06:54:59;;;;;;;2.63;1.10;;;13.40;99.90;;;;;;5054630;28;20779;-57
2023/08/06 06:57:25;;;;;;;1.03;0.80;;;13.40;99.90;;;;;;5061992;28;20188;-57
2023/08/06 06:59:50;;;;;;;1.30;0.80;;;13.50;99.90;;;;;;5060078;28;20569;-57
2023/08/06 07:02:16;;;;;;;2.23;1.00;;;13.50;99.90;;;;;;5060215;28;20178;-56
2023/08/06 07:04:42;;;;;;;1.40;0.90;;;13.50;99.90;;;;;;5054183;28;20211;-57
2023/08/06 07:07:07;;;;;;;1.33;0.80;;;13.40;99.90;;;;;;5065487;28;20182;-59
2023/08/06 07:09:33;;;;;;;0.80;0.80;;;13.40;99.90;;;;;;5058249;28;20706;-55
2023/08/06 07:11:58;;;;;;;0.70;0.70;;;13.40;99.90;;;;;;5059418;28;20259;-57
2023/08/06 07:14:28;;;;;;;1.77;0.80;;;13.40;99.90;;;;;;5065685;28;20582;-57
2023/08/06 07:16:54;;;;;;;2.17;1.23;;;13.40;99.90;;;;;;5063490;28;20674;-58
2023/08/06 07:19:20;;;;;;;0.93;0.93;;;13.40;99.90;;;;;;5063987;28;20431;-57
2023/08/06 07:21:46;;;;;;;1.03;0.77;;;13.40;99.90;;;;;;5063266;28;20181;-54
2023/08/06 07:24:11;;;;;;;2.30;0.70;;;13.40;99.90;;;;;;5066306;28;20217;-55
2023/08/06 07:26:37;;;;;;;0.93;0.70;;;13.50;99.90;;;;;;5057136;28;20211;-59
2023/08/06 07:29:03;;;;;;;2.57;1.20;;;13.50;99.90;;;;;;5046545;28;20178;-59
2023/08/06 07:31:29;;;;;;;1.10;0.70;;;13.60;99.90;;;;;;5063020;28;21321;-59
2023/08/06 07:33:54;;;;;;;1.03;0.70;;;13.60;99.90;;;;;;5051436;28;20202;-59
2023/08/06 07:36:20;;;;;;;1.00;0.80;;;13.60;99.90;;;;;;5056929;28;20190;-55
2023/08/06 07:38:46;;;;;;;0.70;0.70;;;13.60;99.90;;;;;;5056131;28;20651;-60
2023/08/06 07:41:11;;;;;;;0.70;0.70;;;13.60;99.90;;;;;;5063378;28;20197;-59
2023/08/06 07:43:37;;;;;;;1.30;0.80;;;13.50;99.90;;;;;;5060847;28;20198;-54
2023/08/06 07:46:03;;;;;;;0.60;0.60;;;13.40;99.90;;;;;;5059283;28;20221;-55
2023/08/06 07:48:29;;;;;;;2.70;1.00;;;13.40;99.90;;;;;;5057009;28;20179;-52
2023/08/06 07:50:55;;;;;;;1.27;0.87;;;13.40;99.90;;;;;;5060993;28;20250;-55
2023/08/06 07:53:22;;;;;;;0.60;0.60;;;13.40;99.90;;;;;;5059714;28;20226;-53
2023/08/06 07:55:50;;;;;;;0.60;0.60;;;13.40;99.90;;;;;;5058084;28;20447;-56
2023/08/06 07:58:16;;;;;;;1.83;0.80;;;13.40;99.90;;;;;;5066328;28;20905;-58
2023/08/06 08:00:45;;;;;;;1.33;0.60;;;13.40;99.90;;;;;;5059045;28;20546;-59
2023/08/06 08:03:14;;;;;;;1.00;0.93;;;13.30;99.90;;;;;;5060962;28;20206;-56
2023/08/06 08:05:41;;;;;;;1.73;1.10;;;13.30;99.90;;;;;;5064726;28;20543;-59
2023/08/06 08:08:07;;;;;;;1.07;0.80;;;13.30;99.90;;;;;;5053753;28;20434;-60
2023/08/06 08:10:34;;;;;;;2.23;0.80;;;13.20;99.90;;;;;;5057678;28;20584;-58
2023/08/06 08:13:04;;;;;;;0.80;0.70;;;13.20;99.90;;;;;;5056810;28;20856;-57
2023/08/06 08:15:30;;;;;;;1.17;0.80;;;13.20;99.90;;;;;;5058712;28;20435;-56
2023/08/06 08:17:56;;;;;;;1.00;0.90;;;13.20;99.90;;;;;;5056163;28;20528;-60
2023/08/06 08:20:22;;;;;;;0.93;0.73;;;13.30;99.90;;;;;;5058102;28;20440;-58
2023/08/06 08:22:47;;;;;;;0.70;0.70;;;13.30;99.90;;;;;;5057579;28;20292;-56
2023/08/06 08:25:14;;;;;;;0.73;0.73;;;13.40;99.90;;;;;;5061552;28;20544;-56
2023/08/06 08:27:39;;;;;;;1.53;0.90;;;13.40;99.90;;;;;;5053226;28;20253;-58
2023/08/06 08:30:06;;;;;;;1.13;0.77;;;13.40;99.90;;;;;;5058817;28;20905;-57
2023/08/06 08:32:31;;;;;;;0.70;0.70;;;13.30;99.90;;;;;;5060111;28;20259;-57
2023/08/06 08:34:57;;;;;;;2.00;1.03;;;13.40;99.90;;;;;;5051011;28;20441;-53
2023/08/06 08:37:23;;;;;;;1.00;0.70;;;13.40;99.90;;;;;;5052534;28;20187;-59
2023/08/06 08:39:50;;;;;;;1.73;0.70;;;13.40;99.90;;;;;;5056328;28;20243;-54
2023/08/06 08:42:15;;;;;;;3.40;0.73;;;13.30;99.90;;;;;;5060208;28;20441;-53
2023/08/06 08:44:42;;;;;;;0.77;0.77;;;13.40;99.90;;;;;;5047979;28;20550;-55
2023/08/06 08:47:11;;;;;;;0.80;0.80;;;13.50;99.90;;;;;;5055808;28;20188;-58
2023/08/06 08:49:37;;;;;;;1.00;0.90;;;13.50;99.90;;;;;;5059983;28;20470;-58
2023/08/06 08:52:07;;;;;;;1.57;1.10;;;13.60;99.90;;;;;;5054681;28;20846;-57
2023/08/06 08:54:34;;;;;;;3.23;2.27;;;13.60;99.90;;;;;;5055194;28;20545;-57
2023/08/06 08:56:59;;;;;;;1.57;0.77;;;13.60;99.90;;;;;;5055463;28;20973;-57
2023/08/06 08:59:26;;;;;;;0.90;0.80;;;13.60;99.90;;;;;;5056557;28;20433;-58
2023/08/06 09:01:53;;;;;;;0.80;0.70;;;13.70;99.90;;;;;;5060305;28;20728;-57
2023/08/06 09:04:20;;;;;;;1.60;0.70;;;13.70;99.90;;;;;;5055990;28;20534;-59
2023/08/06 09:06:50;;;;;;;1.93;0.80;;;13.70;99.90;;;;;;5061563;28;20950;-60
2023/08/06 09:09:25;;;;;;;4.33;1.00;;;13.80;99.90;;;;;;5059650;28;20435;-59
2023/08/06 09:11:51;;;;;;;0.70;0.70;;;13.90;99.90;;;;;;5059394;28;20984;-60
2023/08/06 09:14:17;;;;;;;1.27;0.83;;;14.00;99.90;;;;;;5060609;28;20840;-60
2023/08/06 09:16:43;;;;;;;0.80;0.80;;;14.10;99.90;;;;;;5056827;28;20430;-59
2023/08/06 09:19:13;;;;;;;1.37;0.80;;;14.20;99.90;;;;;;5055565;28;20189;-63
2023/08/06 09:21:39;;;;;;;0.80;0.80;;;14.20;99.90;;;;;;5058580;28;20437;-61
2023/08/06 09:24:11;;;;;;;1.00;0.80;;;14.10;99.90;;;;;;5062015;28;21098;-61
2023/08/06 09:26:38;;;;;;;1.50;1.40;;;14.10;99.90;;;;;;5056148;28;21248;-60
2023/08/06 09:29:11;;;;;;;0.87;0.80;;;14.10;99.90;;;;;;5053536;28;21391;-59
2023/08/06 09:31:46;;;;;;;0.67;0.67;;;14.10;99.90;;;;;;5060497;28;20445;-60
2023/08/06 09:34:16;;;;;;;0.70;0.70;;;14.00;99.90;;;;;;5062250;28;20444;-61
2023/08/06 09:36:43;;;;;;;1.40;1.20;;;14.00;99.90;;;;;;5056024;28;20432;-58
2023/08/06 09:39:19;;;;;;;2.00;0.90;;;13.90;99.90;;;;;;5059256;28;20441;-57
2023/08/06 09:41:48;;;;;;;1.40;1.30;;;13.80;99.90;;;;;;5057025;28;20438;-55
2023/08/06 09:44:23;;;;;;;0.80;0.80;;;13.80;99.90;;;;;;5054811;28;20457;-55
2023/08/06 09:46:50;;;;;;;1.07;0.80;;;13.80;99.90;;;;;;5055768;28;20531;-55
2023/08/06 09:49:17;;;;;;;1.03;0.80;;;13.80;99.90;;;;;;5057446;28;20496;-56
2023/08/06 09:51:44;;;;;;;1.67;1.00;;;13.90;99.90;;;;;;5058626;28;20432;-56
2023/08/06 09:54:12;;;;;;;1.00;0.90;;;14.00;99.90;;;;;;5056676;28;22193;-54
2023/08/06 09:56:38;;;;;;;1.13;0.93;;;14.10;99.90;;;;;;5060572;28;20436;-53
2023/08/06 09:59:07;;;;;;;2.83;0.93;;;14.10;99.90;;;;;;5057154;28;20818;-55
2023/08/06 10:01:34;;;;;;;0.70;0.70;;;14.20;99.90;;;;;;5056042;28;20194;-55
2023/08/06 10:04:05;;;;;;;1.23;1.13;;;14.30;99.90;;;;;;5058025;28;20945;-54
2023/08/06 10:06:37;;;;;;;0.60;0.60;;;14.30;99.90;;;;;;5053451;28;20605;-58
2023/08/06 10:09:04;;;;;;;0.70;0.70;;;14.40;99.90;;;;;;5051155;28;20811;-59
2023/08/06 10:11:30;;;;;;;0.70;0.70;;;14.50;99.90;;;;;;5060170;28;20425;-59
2023/08/06 10:14:04;;;;;;;0.80;0.80;;;14.50;99.90;;;;;;5058321;28;20487;-60
2023/08/06 10:16:31;;;;;;;1.27;0.73;;;14.60;99.90;;;;;;5056352;28;20432;-62
2023/08/06 10:18:58;;;;;;;0.70;0.70;;;14.70;99.90;;;;;;5053776;28;20428;-58
2023/08/06 10:21:24;;;;;;;0.80;0.80;;;14.80;99.90;;;;;;5066940;28;21058;-58
2023/08/06 10:23:56;;;;;;;0.93;0.63;;;14.90;99.90;;;;;;5054362;28;20476;-59
2023/08/06 10:26:28;;;;;;;0.60;0.60;;;14.90;99.90;;;;;;5057055;28;20456;-59
2023/08/06 10:28:55;;;;;;;0.60;0.60;;;14.90;99.90;;;;;;5057447;28;20622;-58
2023/08/06 10:31:39;;;;;;;0.90;0.70;;;14.90;99.90;;;;;;5055033;28;20436;-59
2023/08/06 10:34:04;;;;;;;1.00;0.83;;;14.90;99.90;;;;;;5057990;28;20457;-59
2023/08/06 10:36:30;;;;;;;0.97;0.70;;;14.90;99.90;;;;;;5054194;28;20502;-60
2023/08/06 10:38:58;;;;;;;0.80;0.80;;;14.80;99.90;;;;;;5052353;28;20209;-59
2023/08/06 10:41:28;;;;;;;0.70;0.70;;;14.70;99.90;;;;;;5059073;28;20183;-59
2023/08/06 10:44:10;;;;;;;0.70;0.70;;;14.60;99.90;;;;;;5058839;28;20448;-58
2023/08/06 10:46:36;;;;;;;0.90;0.90;;;14.60;99.90;;;;;;5055183;28;20515;-58
2023/08/06 10:49:03;;;;;;;0.70;0.70;;;14.60;99.90;;;;;;5055498;28;20425;-58
2023/08/06 10:51:29;;;;;;;0.90;0.70;;;14.60;99.90;;;;;;5053988;28;20445;-60
2023/08/06 10:53:55;;;;;;;0.80;0.80;;;14.50;99.90;;;;;;5051879;28;20547;-58
2023/08/06 10:56:23;;;;;;;1.40;0.80;;;14.50;99.90;;;;;;5055979;28;20190;-59
2023/08/06 10:58:51;;;;;;;0.70;0.70;;;14.40;99.90;;;;;;5053259;28;20429;-58
2023/08/06 11:01:17;;;;;;;1.20;1.10;;;14.30;99.90;;;;;;5057339;28;20514;-57
2023/08/06 11:03:44;;;;;;;1.00;0.90;;;14.40;99.90;;;;;;5050088;28;22322;-59
2023/08/06 11:06:10;;;;;;;1.00;0.80;;;14.40;99.90;;;;;;5049282;28;20209;-59
2023/08/06 11:08:46;;;;;;;0.70;0.70;;;14.50;99.90;;;;;;5047726;28;20472;-57
2023/08/06 11:11:16;;;;;;;0.70;0.70;;;14.60;99.90;;;;;;5055145;28;20421;-59
2023/08/06 11:13:44;;;;;;;1.00;0.90;;;14.70;99.90;;;;;;5054142;28;20456;-59
2023/08/06 11:16:10;;;;;;;2.40;0.90;;;14.70;99.90;;;;;;5055527;28;20855;-60
2023/08/06 11:18:35;;;;;;;0.70;0.70;;;14.60;99.90;;;;;;5052796;28;21042;-59
2023/08/06 11:21:02;;;;;;;0.90;0.80;;;14.60;99.90;;;;;;5055324;28;20183;-60
2023/08/06 11:23:28;;;;;;;0.70;0.70;;;14.50;99.90;;;;;;5058995;28;20614;-59
2023/08/06 11:25:55;;;;;;;0.80;0.80;;;14.50;99.90;;;;;;5052420;28;20491;-57
2023/08/06 11:28:23;;;;;;;1.37;0.80;;;14.60;99.90;;;;;;5055521;28;20428;-59
2023/08/06 11:30:50;;;;;;;0.90;0.90;;;14.60;99.90;;;;;;5051065;28;20459;-58
2023/08/06 11:33:25;;;;;;;1.83;1.60;;;14.60;99.90;;;;;;5051326;28;20481;-60
2023/08/06 11:35:52;;;;;;;1.67;1.43;;;14.70;99.90;;;;;;5054882;28;21416;-56
2023/08/06 11:38:18;;;;;;;0.70;0.70;;;14.70;99.90;;;;;;5058345;28;20447;-58
2023/08/06 11:40:47;;;;;;;2.20;0.90;;;14.70;99.90;;;;;;5051738;28;20437;-56
2023/08/06 11:43:13;;;;;;;0.70;0.70;;;14.60;99.90;;;;;;5055391;28;20293;-58
2023/08/06 11:45:39;;;;;;;0.80;0.80;;;14.60;99.90;;;;;;5051711;28;20456;-58
2023/08/06 11:48:06;;;;;;;3.77;0.70;;;14.60;99.90;;;;;;5054987;28;20916;-60
2023/08/06 11:50:37;;;;;;;0.63;0.63;;;14.60;99.90;;;;;;5048097;28;20211;-59
2023/08/06 11:53:03;;;;;;;0.80;0.80;;;14.60;99.90;;;;;;5049893;28;20544;-58
2023/08/06 11:55:29;;;;;;;1.33;0.80;;;14.60;99.90;;;;;;5061342;28;20515;-58
2023/08/06 11:57:56;;;;;;;0.70;0.70;;;14.60;99.90;;;;;;5062544;28;20206;-59
2023/08/06 12:00:24;;;;;;;0.70;0.70;;;14.60;99.90;;;;;;5051772;28;20866;-58
2023/08/06 12:02:52;;;;;;;1.13;0.70;;;14.60;99.90;;;;;;5063937;28;20538;-58
2023/08/06 12:05:23;;;;;;;2.20;0.77;;;14.60;99.90;;;;;;5065308;28;20541;-58
2023/08/06 12:07:53;;;;;;;0.70;0.70;;;14.60;99.90;;;;;;5058441;28;20432;-58
2023/08/06 12:10:20;;;;;;;0.60;0.60;;;14.50;99.90;;;;;;5057782;28;20515;-55
2023/08/06 12:12:46;;;;;;;1.07;0.70;;;14.50;99.90;;;;;;5053064;28;21305;-57
2023/08/06 12:15:12;;;;;;;0.93;0.87;;;14.50;99.90;;;;;;5064143;28;20524;-57
2023/08/06 12:17:38;;;;;;;0.70;0.70;;;14.50;99.90;;;;;;5057331;28;20191;-56
2023/08/06 12:20:06;;;;;;;1.57;0.70;;;14.40;99.90;;;;;;5061876;28;20214;-57
2023/08/06 12:22:34;;;;;;;0.80;0.70;;;14.30;99.90;;;;;;5054631;28;20961;-57
2023/08/06 12:25:02;;;;;;;3.13;0.80;;;14.20;99.90;;;;;;5060848;28;20464;-56
2023/08/06 12:27:29;;;;;;;0.60;0.60;;;14.20;99.90;;;;;;5059657;28;20424;-58
2023/08/06 12:29:54;;;;;;;0.70;0.70;;;14.10;99.90;;;;;;5061170;28;21016;-57
2023/08/06 12:32:20;;;;;;;0.70;0.70;;;14.20;99.90;;;;;;5063072;28;20532;-56
2023/08/06 12:34:45;;;;;;;0.60;0.60;;;14.30;99.90;;;;;;5056020;28;20171;-56
2023/08/06 12:37:11;;;;;;;1.17;0.70;;;14.40;99.90;;;;;;5057673;28;20178;-55
2023/08/06 12:39:37;;;;;;;0.93;0.80;;;14.50;99.90;;;;;;5055413;28;20178;-55
2023/08/06 12:42:05;;;;;;;0.60;0.60;;;14.60;99.90;;;;;;5057510;28;20550;-55
2023/08/06 12:44:32;;;;;;;0.70;0.70;;;14.50;99.90;;;;;;5061556;28;20460;-56
2023/08/06 12:46:57;;;;;;;0.60;0.60;;;14.60;99.90;;;;;;5062404;28;20486;-57